Time;durP1;ratioP1;P1;durP2;ratioP2;P2;SDS_P1;SDS_P2;PMS_P1;PMS_P2;Temp;Humidity;BMP_temperature;BMP_pressure;BME280_temperature;BME280_humidity;BME280_pressure;Samples;Min_cycle;Max_cycle;Signal;HPM_P1;HPM_P2
2021/04/17 00:01:51;;;;;;;0.75;0.57;;;5.70;88.90;;;;;;5033733;28;20029;-50
2021/04/17 00:04:17;;;;;;;2.15;0.82;;;5.70;88.60;;;;;;5033917;28;20445;-51
2021/04/17 00:06:42;;;;;;;2.97;0.95;;;5.70;88.10;;;;;;5035791;28;20150;-50
2021/04/17 00:09:11;;;;;;;2.78;0.98;;;5.70;88.00;;;;;;5052851;28;20392;-51
2021/04/17 00:11:37;;;;;;;2.58;0.80;;;5.70;88.30;;;;;;5053692;28;20039;-55
2021/04/17 00:14:07;;;;;;;2.83;0.90;;;5.70;87.90;;;;;;5053439;28;20033;-49
2021/04/17 00:16:32;;;;;;;1.48;0.80;;;5.70;87.50;;;;;;5021004;28;20044;-56
2021/04/17 00:18:58;;;;;;;1.83;0.85;;;5.70;88.40;;;;;;5033404;28;20029;-55
2021/04/17 00:21:24;;;;;;;2.22;0.75;;;5.70;88.20;;;;;;5033674;28;20033;-53
2021/04/17 00:23:49;;;;;;;3.60;0.88;;;5.70;88.10;;;;;;5032859;28;20402;-54
2021/04/17 00:26:15;;;;;;;1.52;0.73;;;5.70;89.00;;;;;;5033541;28;20029;-51
2021/04/17 00:28:41;;;;;;;1.50;0.70;;;5.70;88.30;;;;;;5033705;28;20045;-53
2021/04/17 00:31:06;;;;;;;2.97;1.00;;;5.70;88.50;;;;;;5033132;28;20025;-52
2021/04/17 00:33:32;;;;;;;1.55;0.90;;;5.70;88.70;;;;;;5033496;28;20030;-51
2021/04/17 00:35:57;;;;;;;1.45;0.68;;;5.70;88.30;;;;;;5033353;28;20102;-52
2021/04/17 00:38:23;;;;;;;3.58;1.00;;;5.70;88.20;;;;;;5032699;28;20037;-53
2021/04/17 00:40:48;;;;;;;1.52;0.65;;;5.70;88.10;;;;;;5053101;28;20419;-52
2021/04/17 00:43:14;;;;;;;1.00;0.70;;;5.80;87.90;;;;;;5052684;28;20108;-55
2021/04/17 00:45:39;;;;;;;3.05;1.45;;;5.70;87.90;;;;;;5053049;28;20044;-54
2021/04/17 00:48:06;;;;;;;1.65;1.00;;;5.80;88.00;;;;;;5052956;28;20036;-54
2021/04/17 00:50:31;;;;;;;0.93;0.80;;;5.80;87.50;;;;;;5046529;28;20076;-53
2021/04/17 00:52:57;;;;;;;3.22;1.15;;;5.80;87.40;;;;;;5033200;28;20381;-55
2021/04/17 00:55:23;;;;;;;1.13;0.68;;;5.80;87.50;;;;;;5031954;28;20030;-50
2021/04/17 00:57:48;;;;;;;1.23;0.68;;;5.80;87.20;;;;;;5033125;28;20035;-55
2021/04/17 01:00:14;;;;;;;4.05;0.90;;;5.80;87.10;;;;;;5032514;28;20366;-50
2021/04/17 01:03:08;;;;;;;1.30;0.73;;;5.80;87.10;;;;;;5033075;28;20017;-54
2021/04/17 01:05:34;;;;;;;6.45;1.10;;;5.80;87.20;;;;;;4996738;28;20638;-53
2021/04/17 01:08:05;;;;;;;1.95;0.95;;;5.80;86.80;;;;;;5032525;28;20160;-55
2021/04/17 01:10:35;;;;;;;1.17;0.82;;;5.80;86.60;;;;;;5031736;28;20037;-51
2021/04/17 01:13:02;;;;;;;1.98;0.75;;;5.80;86.80;;;;;;5015279;28;20416;-51
2021/04/17 01:15:28;;;;;;;1.60;0.82;;;5.80;87.00;;;;;;5032642;28;20026;-52
2021/04/17 01:17:56;;;;;;;1.75;0.60;;;5.80;87.00;;;;;;5032634;28;20037;-52
2021/04/17 01:20:41;;;;;;;4.55;1.40;;;5.80;87.30;;;;;;5032288;28;20041;-54
2021/04/17 01:23:18;;;;;;;2.22;0.75;;;5.80;87.90;;;;;;5032380;28;20026;-50
2021/04/17 01:25:58;;;;;;;1.25;0.65;;;5.80;87.60;;;;;;5032541;28;20022;-55
2021/04/17 01:28:26;;;;;;;1.38;0.60;;;5.80;87.20;;;;;;5033348;28;20037;-53
2021/04/17 01:30:53;;;;;;;0.88;0.77;;;5.80;87.50;;;;;;5033175;28;20485;-54
2021/04/17 01:33:22;;;;;;;1.33;0.77;;;5.80;87.50;;;;;;5033147;28;20026;-56
2021/04/17 01:35:49;;;;;;;2.95;0.90;;;5.80;87.30;;;;;;5038887;28;20028;-51
2021/04/17 01:38:31;;;;;;;0.77;0.60;;;5.70;87.30;;;;;;5052118;28;20029;-52
2021/04/17 01:41:02;;;;;;;3.45;1.63;;;5.70;87.30;;;;;;5053065;28;20029;-52
2021/04/17 01:43:30;;;;;;;2.20;0.80;;;5.70;87.60;;;;;;5053078;28;20036;-55
2021/04/17 01:46:03;;;;;;;4.50;0.90;;;5.70;87.50;;;;;;5052826;28;20124;-54
2021/04/17 01:48:30;;;;;;;1.58;0.60;;;5.70;87.70;;;;;;5053027;28;20028;-54
2021/04/17 01:50:58;;;;;;;2.05;0.90;;;5.70;87.50;;;;;;5047584;28;20468;-56
2021/04/17 01:53:28;;;;;;;1.85;0.70;;;5.60;87.30;;;;;;5031970;28;20480;-57
2021/04/17 01:55:55;;;;;;;0.77;0.68;;;5.60;87.30;;;;;;5032935;28;20065;-52
2021/04/17 01:58:25;;;;;;;1.60;0.90;;;5.60;87.40;;;;;;5032730;28;20124;-54
2021/04/17 02:00:54;;;;;;;4.60;0.85;;;5.60;87.40;;;;;;5032736;28;20029;-54
2021/04/17 02:03:21;;;;;;;1.88;1.02;;;5.60;87.50;;;;;;5032886;28;20362;-54
2021/04/17 02:05:50;;;;;;;1.38;1.00;;;5.60;87.70;;;;;;5032482;28;20389;-55
2021/04/17 02:08:16;;;;;;;1.98;0.88;;;5.60;87.50;;;;;;5031875;28;20033;-52
2021/04/17 02:10:43;;;;;;;1.20;0.90;;;5.60;87.40;;;;;;5032546;28;20049;-54
2021/04/17 02:13:10;;;;;;;4.20;1.13;;;5.60;87.60;;;;;;5032587;28;20040;-55
2021/04/17 02:15:37;;;;;;;2.33;0.75;;;5.60;88.00;;;;;;5032380;28;20030;-53
2021/04/17 02:18:21;;;;;;;1.95;0.85;;;5.60;87.40;;;;;;5032370;28;20573;-56
2021/04/17 02:21:01;;;;;;;0.98;0.60;;;5.60;88.10;;;;;;5032051;28;20025;-51
2021/04/17 02:23:28;;;;;;;2.13;0.95;;;5.60;88.60;;;;;;5031733;28;20376;-53
2021/04/17 02:25:57;;;;;;;1.80;0.65;;;5.60;87.80;;;;;;5032569;28;20028;-51
2021/04/17 02:28:24;;;;;;;2.90;0.80;;;5.60;87.90;;;;;;5032547;28;20057;-54
2021/04/17 02:30:49;;;;;;;1.00;0.73;;;5.60;87.90;;;;;;5032394;28;20068;-55
2021/04/17 02:33:15;;;;;;;1.17;1.00;;;5.60;87.80;;;;;;5032362;28;20033;-54
2021/04/17 02:35:40;;;;;;;1.73;0.60;;;5.70;87.90;;;;;;5037156;28;20382;-53
2021/04/17 02:38:06;;;;;;;1.05;0.90;;;5.70;88.10;;;;;;5052191;28;20469;-57
2021/04/17 02:40:31;;;;;;;2.00;0.88;;;5.70;87.80;;;;;;5051298;28;20037;-53
2021/04/17 02:42:57;;;;;;;2.63;0.80;;;5.70;87.60;;;;;;5052198;28;20025;-53
2021/04/17 02:45:22;;;;;;;1.10;0.80;;;5.70;87.70;;;;;;5052174;28;20028;-53
2021/04/17 02:47:48;;;;;;;4.00;1.13;;;5.70;87.60;;;;;;5052198;28;20064;-53
2021/04/17 02:50:13;;;;;;;3.45;0.77;;;5.70;87.80;;;;;;5052144;28;20029;-54
2021/04/17 02:52:39;;;;;;;3.35;1.00;;;5.80;87.60;;;;;;5032611;28;20030;-51
2021/04/17 02:55:06;;;;;;;1.42;0.70;;;5.80;87.40;;;;;;5031311;28;20018;-56
2021/04/17 02:57:31;;;;;;;1.42;0.90;;;5.80;87.80;;;;;;5032097;28;20091;-50
2021/04/17 02:59:57;;;;;;;1.75;0.90;;;5.80;87.90;;;;;;5032191;28;20045;-51
2021/04/17 03:02:22;;;;;;;1.70;0.80;;;5.80;87.50;;;;;;5032042;28;20022;-55
2021/04/17 03:04:48;;;;;;;1.80;0.70;;;5.80;87.40;;;;;;5032156;28;20040;-54
2021/04/17 03:07:13;;;;;;;1.55;0.70;;;5.80;88.10;;;;;;5031964;28;20389;-51
2021/04/17 03:09:39;;;;;;;4.43;1.02;;;5.80;87.40;;;;;;5031145;28;20026;-51
2021/04/17 03:12:05;;;;;;;2.78;1.20;;;5.80;87.40;;;;;;5032063;28;20057;-52
2021/04/17 03:14:31;;;;;;;2.08;0.90;;;5.80;87.40;;;;;;5014465;28;20124;-56
2021/04/17 03:16:56;;;;;;;1.67;0.80;;;5.80;87.50;;;;;;5032045;28;20509;-51
2021/04/17 03:19:22;;;;;;;1.52;0.80;;;5.80;87.30;;;;;;5028246;28;20037;-54
2021/04/17 03:21:47;;;;;;;1.77;0.80;;;5.80;88.20;;;;;;5031610;28;20061;-53
2021/04/17 03:24:13;;;;;;;2.35;0.70;;;5.80;87.20;;;;;;5030755;28;20022;-53
2021/04/17 03:26:38;;;;;;;2.63;0.80;;;5.80;87.20;;;;;;5031765;28;20037;-55
2021/04/17 03:29:04;;;;;;;2.22;1.02;;;5.70;87.20;;;;;;5031840;28;20116;-52
2021/04/17 03:31:29;;;;;;;5.00;0.82;;;5.70;87.10;;;;;;5034345;28;20041;-51
2021/04/17 03:33:55;;;;;;;2.85;0.95;;;5.60;87.60;;;;;;5035420;28;20029;-51
2021/04/17 03:36:20;;;;;;;2.45;1.13;;;5.60;87.40;;;;;;5045570;28;20056;-50
2021/04/17 03:38:46;;;;;;;2.65;1.00;;;5.50;87.50;;;;;;5054080;28;20116;-51
2021/04/17 03:41:11;;;;;;;1.48;0.70;;;5.40;87.70;;;;;;5037317;28;20104;-52
2021/04/17 03:43:37;;;;;;;2.17;0.93;;;5.30;87.90;;;;;;5054945;28;20029;-52
2021/04/17 03:46:03;;;;;;;3.08;0.98;;;5.30;88.20;;;;;;5055114;28;20075;-51
2021/04/17 03:48:29;;;;;;;5.30;1.20;;;5.30;88.30;;;;;;5054916;28;20027;-50
2021/04/17 03:50:55;;;;;;;1.80;0.90;;;5.20;88.80;;;;;;5049938;28;20100;-55
2021/04/17 03:53:21;;;;;;;2.67;0.80;;;5.20;88.70;;;;;;5033611;28;20037;-52
2021/04/17 03:55:46;;;;;;;2.78;1.00;;;5.20;88.90;;;;;;5034089;28;20029;-51
2021/04/17 03:58:12;;;;;;;2.08;0.98;;;5.20;88.80;;;;;;5034912;28;20025;-54
2021/04/17 04:00:38;;;;;;;2.30;0.80;;;5.20;89.60;;;;;;5034782;28;20059;-53
2021/04/17 04:03:03;;;;;;;1.38;0.82;;;5.20;88.80;;;;;;5034715;28;20049;-54
2021/04/17 04:05:29;;;;;;;1.50;0.65;;;5.20;88.90;;;;;;5034718;28;20029;-49
2021/04/17 04:07:54;;;;;;;2.05;0.70;;;5.20;89.00;;;;;;5034483;28;20021;-51
2021/04/17 04:10:20;;;;;;;3.83;1.00;;;5.10;88.70;;;;;;5033719;28;20516;-51
2021/04/17 04:12:46;;;;;;;1.30;0.95;;;5.10;88.80;;;;;;5034600;28;20114;-53
2021/04/17 04:15:13;;;;;;;3.22;0.85;;;5.20;88.70;;;;;;5034796;28;20025;-52
2021/04/17 04:17:39;;;;;;;1.63;0.77;;;5.20;88.50;;;;;;5028753;28;20417;-52
2021/04/17 04:20:06;;;;;;;1.52;0.70;;;5.30;88.50;;;;;;5038703;28;20029;-52
2021/04/17 04:22:33;;;;;;;1.63;0.75;;;5.30;88.20;;;;;;5042998;28;20033;-51
2021/04/17 04:24:59;;;;;;;2.20;0.85;;;5.40;87.90;;;;;;5051208;28;20067;-54
2021/04/17 04:27:25;;;;;;;0.70;0.70;;;5.40;87.90;;;;;;5032654;28;20056;-52
2021/04/17 04:29:50;;;;;;;1.70;1.02;;;5.40;87.70;;;;;;5015017;28;20029;-51
2021/04/17 04:32:16;;;;;;;2.65;1.17;;;5.40;87.50;;;;;;5027908;28;20124;-53
2021/04/17 04:34:41;;;;;;;2.42;0.80;;;5.50;87.50;;;;;;5022449;28;20389;-54
2021/04/17 04:37:07;;;;;;;3.38;1.13;;;5.50;87.70;;;;;;5029562;28;20682;-49
2021/04/17 04:39:32;;;;;;;1.08;0.98;;;5.50;87.60;;;;;;5031540;28;20033;-51
2021/04/17 04:41:58;;;;;;;2.05;1.00;;;5.50;87.20;;;;;;5031604;28;20030;-53
2021/04/17 04:44:24;;;;;;;1.90;1.02;;;5.50;87.20;;;;;;5032521;28;20068;-52
2021/04/17 04:46:49;;;;;;;2.72;1.10;;;5.60;87.10;;;;;;5032245;28;20021;-50
2021/04/17 04:49:15;;;;;;;0.88;0.70;;;5.60;87.40;;;;;;5032512;28;20380;-51
2021/04/17 04:51:40;;;;;;;4.47;0.80;;;5.60;87.00;;;;;;5031978;28;20450;-53
2021/04/17 04:54:06;;;;;;;1.98;0.85;;;5.60;86.90;;;;;;5013500;28;20561;-53
2021/04/17 04:56:31;;;;;;;0.80;0.60;;;5.60;87.00;;;;;;5032135;28;20048;-52
2021/04/17 04:58:57;;;;;;;2.00;0.70;;;5.60;86.90;;;;;;5032053;28;20034;-53
2021/04/17 05:01:22;;;;;;;1.75;0.98;;;5.70;87.10;;;;;;5032171;28;20049;-53
2021/04/17 05:03:48;;;;;;;1.88;0.90;;;5.70;86.80;;;;;;5031898;28;20124;-51
2021/04/17 05:06:14;;;;;;;3.83;1.00;;;5.70;87.10;;;;;;5032103;28;20046;-53
2021/04/17 05:08:39;;;;;;;1.25;0.70;;;5.70;86.80;;;;;;5013002;28;20056;-56
2021/04/17 05:11:05;;;;;;;2.20;1.10;;;5.70;86.60;;;;;;5031965;28;20029;-52
2021/04/17 05:13:31;;;;;;;2.50;0.88;;;5.80;86.60;;;;;;5014041;28;20031;-51
2021/04/17 05:15:56;;;;;;;3.13;0.95;;;5.80;86.50;;;;;;5031806;28;20056;-52
2021/04/17 05:18:22;;;;;;;2.58;1.17;;;5.90;86.70;;;;;;5031746;28;20029;-50
2021/04/17 05:20:47;;;;;;;2.10;0.98;;;5.90;86.50;;;;;;5031505;28;20025;-55
2021/04/17 05:23:13;;;;;;;2.28;0.82;;;5.90;86.30;;;;;;5030763;28;20110;-49
2021/04/17 05:25:38;;;;;;;5.53;1.30;;;5.90;86.30;;;;;;5012163;28;20066;-53
2021/04/17 05:28:04;;;;;;;4.22;1.20;;;5.90;86.20;;;;;;5051525;28;20143;-55
2021/04/17 05:30:30;;;;;;;4.07;2.15;;;6.00;86.90;;;;;;5051322;28;20071;-54
2021/04/17 05:32:55;;;;;;;3.58;1.45;;;6.00;86.50;;;;;;5051199;28;20029;-51
2021/04/17 05:35:21;;;;;;;1.55;1.13;;;6.00;86.40;;;;;;5051253;28;20025;-50
2021/04/17 05:37:46;;;;;;;2.35;1.17;;;6.00;86.60;;;;;;5033467;28;20032;-51
2021/04/17 05:40:12;;;;;;;3.10;1.27;;;6.10;86.50;;;;;;5050229;28;20036;-54
2021/04/17 05:42:38;;;;;;;2.28;1.25;;;6.00;86.80;;;;;;5051213;28;20417;-51
2021/04/17 05:45:04;;;;;;;3.38;1.13;;;6.10;86.70;;;;;;5051086;28;20029;-53
2021/04/17 05:47:30;;;;;;;4.57;1.10;;;6.10;86.70;;;;;;5051031;28;20021;-51
2021/04/17 05:49:55;;;;;;;4.70;1.23;;;6.10;87.30;;;;;;5050863;28;20032;-55
2021/04/17 05:52:21;;;;;;;3.42;1.35;;;6.10;87.20;;;;;;5034063;28;20075;-52
2021/04/17 05:54:46;;;;;;;3.88;1.00;;;6.10;87.10;;;;;;5029114;28;20021;-50
2021/04/17 05:57:12;;;;;;;3.83;0.85;;;6.10;87.20;;;;;;5031103;28;20140;-52
2021/04/17 05:59:37;;;;;;;4.88;1.10;;;6.10;87.60;;;;;;5030807;28;20424;-51
2021/04/17 06:02:03;;;;;;;3.22;1.02;;;6.10;87.10;;;;;;5031037;28;20053;-51
2021/04/17 06:04:29;;;;;;;4.32;1.58;;;6.10;87.10;;;;;;5030861;28;20436;-51
2021/04/17 06:06:54;;;;;;;2.70;0.98;;;6.10;87.50;;;;;;5030949;28;20029;-49
2021/04/17 06:09:21;;;;;;;5.75;1.20;;;6.20;87.10;;;;;;5029900;28;20068;-51
2021/04/17 06:11:47;;;;;;;5.00;1.38;;;6.20;86.80;;;;;;5030943;28;20017;-52
2021/04/17 06:14:12;;;;;;;6.15;1.20;;;6.30;87.00;;;;;;5030824;28;20586;-53
2021/04/17 06:16:38;;;;;;;1.63;1.00;;;6.30;86.90;;;;;;5013267;28;20025;-49
2021/04/17 06:19:03;;;;;;;2.40;1.10;;;6.40;86.60;;;;;;5020344;28;20040;-50
2021/04/17 06:21:29;;;;;;;5.78;1.02;;;6.40;86.50;;;;;;5027389;28;20152;-49
2021/04/17 06:23:54;;;;;;;1.85;0.88;;;6.50;86.50;;;;;;5029810;28;20394;-53
2021/04/17 06:26:21;;;;;;;1.63;0.80;;;6.60;86.30;;;;;;5021966;28;20381;-53
2021/04/17 06:28:46;;;;;;;2.50;0.88;;;6.60;86.20;;;;;;5048641;28;20025;-52
2021/04/17 06:31:12;;;;;;;4.40;1.13;;;6.70;86.00;;;;;;5043775;28;20029;-50
2021/04/17 06:33:37;;;;;;;3.30;1.05;;;6.70;85.80;;;;;;5041193;28;20491;-51
2021/04/17 06:36:04;;;;;;;3.22;1.65;;;6.80;85.80;;;;;;5030370;28;20029;-51
2021/04/17 06:38:30;;;;;;;3.47;1.35;;;6.80;85.90;;;;;;5011950;28;20037;-52
2021/04/17 06:40:55;;;;;;;2.78;1.20;;;6.80;85.80;;;;;;5045259;28;20039;-51
2021/04/17 06:43:22;;;;;;;5.30;1.77;;;6.90;85.80;;;;;;5039217;28;20037;-53
2021/04/17 06:45:51;;;;;;;2.95;1.33;;;6.90;85.80;;;;;;5012606;28;20022;-51
2021/04/17 06:48:19;;;;;;;3.28;1.58;;;6.90;86.00;;;;;;5030379;28;20025;-50
2021/04/17 06:50:45;;;;;;;4.65;1.58;;;7.00;85.80;;;;;;5029924;28;20017;-49
2021/04/17 06:53:12;;;;;;;2.38;1.38;;;7.00;85.90;;;;;;5029592;28;20104;-50
2021/04/17 06:55:38;;;;;;;5.30;1.45;;;7.00;85.90;;;;;;5030056;28;20053;-49
2021/04/17 06:58:04;;;;;;;4.68;1.88;;;7.00;86.20;;;;;;5030378;28;20053;-51
2021/04/17 07:00:30;;;;;;;7.32;1.58;;;7.10;86.00;;;;;;5012566;28;20022;-51
2021/04/17 07:02:55;;;;;;;3.53;1.60;;;7.20;85.80;;;;;;5029892;28;20074;-49
2021/04/17 07:05:21;;;;;;;6.10;1.73;;;7.20;86.00;;;;;;5031025;28;20033;-55
2021/04/17 07:07:47;;;;;;;3.47;1.60;;;7.20;86.00;;;;;;5034081;28;20029;-51
2021/04/17 07:10:14;;;;;;;5.65;1.77;;;7.30;86.00;;;;;;5033157;28;20037;-51
2021/04/17 07:12:43;;;;;;;4.32;2.13;;;7.40;86.10;;;;;;5033806;28;20029;-50
2021/04/17 07:15:09;;;;;;;7.35;3.15;;;7.40;86.10;;;;;;5034046;28;20033;-52
2021/04/17 07:17:36;;;;;;;6.82;1.80;;;7.50;85.80;;;;;;5033893;28;20489;-50
2021/04/17 07:20:05;;;;;;;4.82;2.08;;;7.60;85.60;;;;;;5015800;28;20040;-48
2021/04/17 07:22:33;;;;;;;5.20;1.75;;;7.70;85.70;;;;;;5033845;28;20535;-52
2021/04/17 07:25:05;;;;;;;6.70;1.98;;;7.90;85.60;;;;;;5030114;28;20025;-50
2021/04/17 07:27:37;;;;;;;5.45;1.77;;;8.00;85.20;;;;;;5028895;28;20474;-52
2021/04/17 07:30:26;;;;;;;9.25;2.20;;;8.10;84.90;;;;;;5024341;28;20373;-48
2021/04/17 07:33:12;;;;;;;4.97;2.10;;;8.30;84.40;;;;;;5033623;28;20472;-49
2021/04/17 07:35:44;;;;;;;3.90;1.93;;;8.40;83.90;;;;;;5033708;28;20085;-48
2021/04/17 07:38:19;;;;;;;6.93;2.08;;;8.50;83.60;;;;;;5032809;28;20291;-50
2021/04/17 07:40:59;;;;;;;5.32;2.47;;;8.70;83.20;;;;;;5033259;28;20060;-50
2021/04/17 07:43:43;;;;;;;9.35;3.00;;;8.80;82.50;;;;;;5043214;28;20099;-49
2021/04/17 07:46:08;;;;;;;9.35;3.42;;;8.90;82.10;;;;;;5053390;28;20028;-51
2021/04/17 07:48:34;;;;;;;5.85;1.90;;;9.00;82.20;;;;;;5053245;28;20021;-48
2021/04/17 07:51:02;;;;;;;5.70;2.20;;;9.20;82.00;;;;;;5047028;28;20022;-49
2021/04/17 07:53:34;;;;;;;7.22;2.25;;;9.30;81.30;;;;;;5032444;28;20029;-49
2021/04/17 07:56:23;;;;;;;7.20;2.25;;;9.40;80.90;;;;;;5033047;28;20116;-52
2021/04/17 07:58:50;;;;;;;6.93;1.90;;;9.50;80.60;;;;;;5100871;23;20049;-48
2021/04/17 08:01:19;;;;;;;5.53;2.38;;;9.60;80.70;;;;;;5071690;28;20037;-52
2021/04/17 08:03:46;;;;;;;3.70;1.60;;;9.70;79.60;;;;;;5072661;28;20024;-50
2021/04/17 08:06:15;;;;;;;6.47;2.60;;;10.00;80.50;;;;;;5072987;28;20036;-49
2021/04/17 08:08:44;;;;;;;5.45;3.28;;;10.30;78.60;;;;;;5071908;28;20046;-48
2021/04/17 08:11:10;;;;;;;7.57;2.28;;;10.50;78.20;;;;;;5072802;28;20026;-48
2021/04/17 08:13:41;;;;;;;6.00;2.50;;;10.80;78.00;;;;;;5072672;28;20024;-49
2021/04/17 08:16:08;;;;;;;5.70;2.60;;;11.00;76.80;;;;;;5072305;28;20025;-48
2021/04/17 08:18:35;;;;;;;5.95;2.20;;;11.10;76.50;;;;;;5076751;28;20020;-51
2021/04/17 08:21:02;;;;;;;7.72;2.90;;;11.20;75.80;;;;;;5092768;28;20020;-48
2021/04/17 08:23:29;;;;;;;4.22;2.03;;;11.50;74.90;;;;;;5091804;28;20042;-50
2021/04/17 08:25:55;;;;;;;6.75;2.17;;;11.80;75.10;;;;;;5083199;28;20016;-49
2021/04/17 08:28:22;;;;;;;8.70;2.78;;;12.00;74.10;;;;;;5073277;28;20035;-52
2021/04/17 08:30:48;;;;;;;5.07;1.90;;;12.30;73.60;;;;;;5072964;28;20074;-51
2021/04/17 08:33:21;;;;;;;7.38;2.40;;;12.70;72.90;;;;;;5073102;28;20036;-53
2021/04/17 08:35:47;;;;;;;6.38;2.47;;;12.80;72.20;;;;;;5073265;28;20387;-53
2021/04/17 08:38:14;;;;;;;8.32;3.30;;;12.80;71.80;;;;;;5072097;28;20039;-50
2021/04/17 08:40:50;;;;;;;10.13;2.85;;;12.70;71.40;;;;;;5073271;28;20055;-53
2021/04/17 08:43:18;;;;;;;6.35;2.90;;;12.70;69.40;;;;;;5072906;28;20515;-50
2021/04/17 08:46:10;;;;;;;4.07;2.20;;;12.60;71.00;;;;;;5073040;28;20032;-52
2021/04/17 08:48:56;;;;;;;7.75;2.60;;;12.60;71.20;;;;;;5072950;28;20021;-49
2021/04/17 08:51:21;;;;;;;10.88;3.53;;;12.70;70.00;;;;;;5065474;28;20458;-52
2021/04/17 08:53:51;;;;;;;5.72;2.80;;;12.80;70.90;;;;;;5091742;28;20021;-53
2021/04/17 08:56:17;;;;;;;5.85;2.67;;;12.90;70.90;;;;;;5092953;28;20481;-48
2021/04/17 08:59:09;;;;;;;5.90;2.58;;;13.00;70.80;;;;;;5092470;28;20076;-49
2021/04/17 09:01:41;;;;;;;9.20;3.30;;;13.40;69.50;;;;;;5074257;28;20025;-50
2021/04/17 09:04:09;;;;;;;5.85;2.80;;;13.80;68.90;;;;;;5072219;28;20077;-51
2021/04/17 09:06:34;;;;;;;7.13;2.70;;;14.40;68.70;;;;;;5072731;28;20028;-56
2021/04/17 09:09:15;;;;;;;8.32;2.47;;;14.90;68.20;;;;;;5071575;28;20032;-53
2021/04/17 09:11:42;;;;;;;5.82;2.70;;;15.20;65.70;;;;;;5072580;28;20051;-51
2021/04/17 09:14:26;;;;;;;7.60;2.72;;;16.30;65.30;;;;;;5072380;28;20424;-48
2021/04/17 09:16:54;;;;;;;4.00;2.00;;;17.20;61.60;;;;;;5072467;28;20025;-52
2021/04/17 09:19:38;;;;;;;7.90;3.08;;;18.30;62.50;;;;;;5072326;28;20074;-48
2021/04/17 09:22:25;;;;;;;6.85;2.55;;;18.80;60.20;;;;;;5072359;28;20054;-48
2021/04/17 09:25:03;;;;;;;6.00;2.35;;;19.00;55.90;;;;;;5071270;28;20066;-51
2021/04/17 09:27:40;;;;;;;5.32;2.58;;;18.80;60.00;;;;;;5072397;28;20030;-53
2021/04/17 09:30:10;;;;;;;10.85;3.45;;;18.90;59.20;;;;;;5072233;28;20017;-49
2021/04/17 09:32:39;;;;;;;6.47;2.90;;;19.00;58.70;;;;;;5072405;28;20028;-48
2021/04/17 09:35:25;;;;;;;6.03;3.05;;;19.30;58.30;;;;;;5072362;28;20016;-48
2021/04/17 09:37:54;;;;;;;;;;;20.00;53.50;;;;;;5072760;28;20024;-53
2021/04/17 09:40:41;;;;;;;6.25;2.50;;;19.50;52.40;;;;;;5071217;28;20386;-54
2021/04/17 09:43:19;;;;;;;5.18;2.80;;;19.90;56.70;;;;;;5071530;28;20491;-54
2021/04/17 09:45:45;;;;;;;6.35;2.85;;;20.00;56.40;;;;;;5071212;28;20025;-50
2021/04/17 09:48:11;;;;;;;6.00;2.67;;;20.50;55.60;;;;;;5071025;28;20443;-50
2021/04/17 09:50:37;;;;;;;5.30;2.58;;;20.80;53.80;;;;;;5071027;28;20111;-51
2021/04/17 09:53:28;;;;;;;4.78;2.25;;;20.90;54.40;;;;;;5084148;28;20108;-52
2021/04/17 09:56:00;;;;;;;12.73;3.13;;;20.40;53.50;;;;;;5091179;28;20025;-49
2021/04/17 09:58:35;;;;;;;5.85;2.45;;;19.70;54.70;;;;;;5090623;28;20024;-53
2021/04/17 10:01:06;;;;;;;5.35;2.22;;;19.20;55.80;;;;;;5076741;28;20095;-52
2021/04/17 10:03:35;;;;;;;5.30;2.15;;;19.20;55.90;;;;;;5070928;28;20021;-52
2021/04/17 10:06:01;;;;;;;4.90;2.55;;;19.40;56.50;;;;;;5070766;28;20468;-49
2021/04/17 10:08:32;;;;;;;3.60;2.22;;;19.50;56.70;;;;;;5069975;28;20028;-53
2021/04/17 10:10:59;;;;;;;5.57;2.25;;;19.60;56.50;;;;;;5070579;28;20020;-50
2021/04/17 10:13:45;;;;;;;6.63;2.67;;;19.60;55.30;;;;;;5070911;28;20433;-51
2021/04/17 10:16:13;;;;;;;8.10;3.22;;;19.40;55.80;;;;;;5070221;28;20082;-50
2021/04/17 10:18:42;;;;;;;5.53;2.33;;;19.20;56.40;;;;;;5070784;28;20107;-49
2021/04/17 10:21:08;;;;;;;9.75;2.80;;;18.90;56.30;;;;;;5070312;28;20081;-51
2021/04/17 10:23:34;;;;;;;6.78;2.75;;;18.50;56.40;;;;;;5061540;28;20460;-50
2021/04/17 10:26:04;;;;;;;8.13;3.30;;;18.10;56.50;;;;;;5069447;28;20559;-52
2021/04/17 10:28:31;;;;;;;7.68;3.10;;;17.80;57.20;;;;;;5070766;28;20033;-51
2021/04/17 10:30:58;;;;;;;6.00;2.33;;;17.40;57.80;;;;;;5070870;28;20029;-53
2021/04/17 10:33:25;;;;;;;5.60;2.10;;;17.10;58.20;;;;;;5072612;28;20381;-53
2021/04/17 10:35:52;;;;;;;6.13;2.50;;;17.00;58.50;;;;;;5072030;28;20529;-53
2021/04/17 10:38:26;;;;;;;6.22;2.17;;;17.00;58.70;;;;;;5071135;28;20117;-49
2021/04/17 10:40:52;;;;;;;7.80;2.28;;;17.10;58.20;;;;;;5074361;28;20150;-50
2021/04/17 10:43:18;;;;;;;4.28;2.25;;;17.40;58.20;;;;;;5076275;28;20127;-50
2021/04/17 10:45:45;;;;;;;4.65;2.38;;;17.70;57.70;;;;;;5076186;28;20533;-54
2021/04/17 10:48:24;;;;;;;6.00;2.25;;;17.80;57.30;;;;;;5076333;28;20024;-53
2021/04/17 10:51:01;;;;;;;6.65;2.47;;;18.00;56.20;;;;;;5076116;28;20020;-49
2021/04/17 10:53:31;;;;;;;4.63;2.58;;;18.10;56.60;;;;;;5075397;28;20376;-52
2021/04/17 10:55:59;;;;;;;7.28;2.70;;;17.90;56.30;;;;;;5076114;28;20025;-50
2021/04/17 10:58:35;;;;;;;8.45;3.35;;;17.60;56.20;;;;;;5075971;28;20028;-49
2021/04/17 11:01:22;;;;;;;7.25;2.70;;;17.20;56.80;;;;;;5061573;28;20036;-49
2021/04/17 11:03:52;;;;;;;;;;;16.90;57.80;;;;;;5056472;28;20052;-48
2021/04/17 11:06:23;;;;;;;7.05;2.45;;;16.70;57.00;;;;;;5067657;28;19981;-48
2021/04/17 11:08:50;;;;;;;8.73;2.78;;;16.40;58.70;;;;;;5074914;28;20360;-52
2021/04/17 11:11:21;;;;;;;8.70;2.75;;;16.00;59.10;;;;;;5074195;28;20035;-51
2021/04/17 11:13:58;;;;;;;8.80;2.40;;;15.60;60.30;;;;;;5075887;28;20094;-52
2021/04/17 11:16:42;;;;;;;6.18;2.78;;;15.20;61.20;;;;;;5075555;28;20028;-50
2021/04/17 11:19:23;;;;;;;4.68;2.42;;;14.90;61.90;;;;;;5075574;28;20062;-49
2021/04/17 11:22:15;;;;;;;7.28;2.67;;;14.60;63.80;;;;;;5075437;28;20029;-50
2021/04/17 11:24:43;;;;;;;7.32;3.13;;;14.60;64.80;;;;;;5074841;28;20021;-49
2021/04/17 11:27:09;;;;;;;6.80;3.80;;;14.30;64.60;;;;;;5075437;28;20104;-55
2021/04/17 11:29:35;;;;;;;6.25;2.85;;;14.00;66.00;;;;;;5074420;28;20446;-52
2021/04/17 11:32:02;;;;;;;4.95;2.60;;;13.70;66.90;;;;;;5065657;28;20025;-49
2021/04/17 11:34:27;;;;;;;6.40;2.97;;;13.70;67.50;;;;;;5055246;28;20029;-51
2021/04/17 11:36:53;;;;;;;5.28;3.08;;;13.60;67.80;;;;;;5055372;28;20036;-49
2021/04/17 11:39:19;;;;;;;8.93;3.50;;;13.60;67.70;;;;;;5054240;28;20476;-51
2021/04/17 11:41:45;;;;;;;5.38;2.80;;;13.70;68.00;;;;;;5055320;28;20025;-48
2021/04/17 11:44:12;;;;;;;8.35;2.97;;;13.80;68.30;;;;;;5055196;28;20018;-50
2021/04/17 11:46:38;;;;;;;6.10;3.30;;;14.00;67.80;;;;;;5055298;28;20025;-49
2021/04/17 11:49:04;;;;;;;7.68;3.05;;;14.10;67.50;;;;;;5055049;28;20100;-49
2021/04/17 11:51:30;;;;;;;9.10;2.60;;;14.20;67.00;;;;;;5054936;28;20049;-52
2021/04/17 11:53:56;;;;;;;4.13;2.45;;;14.40;66.50;;;;;;5054297;28;20025;-50
2021/04/17 11:56:22;;;;;;;7.25;3.40;;;14.50;66.00;;;;;;5054928;28;20029;-49
2021/04/17 11:58:48;;;;;;;9.25;3.42;;;14.80;66.10;;;;;;5054937;28;20121;-51
2021/04/17 12:01:17;;;;;;;5.90;3.30;;;15.00;65.10;;;;;;5070580;28;20098;-51
2021/04/17 12:03:42;;;;;;;6.35;3.15;;;15.20;65.10;;;;;;5074820;28;20025;-52
2021/04/17 12:06:08;;;;;;;5.22;2.80;;;15.10;64.70;;;;;;5074936;28;20024;-48
2021/04/17 12:08:34;;;;;;;4.72;2.28;;;15.00;64.80;;;;;;5074066;28;20024;-53
2021/04/17 12:11:02;;;;;;;6.50;2.80;;;15.00;64.70;;;;;;5075097;28;20043;-51
2021/04/17 12:13:27;;;;;;;8.82;3.33;;;15.20;64.50;;;;;;5074864;28;20067;-48
2021/04/17 12:15:53;;;;;;;5.32;2.55;;;15.40;64.30;;;;;;5074774;28;20056;-51
2021/04/17 12:18:18;;;;;;;6.07;2.35;;;15.50;64.20;;;;;;5074383;28;20476;-52
2021/04/17 12:20:45;;;;;;;6.45;2.80;;;15.50;64.10;;;;;;5074682;28;20029;-48
2021/04/17 12:23:11;;;;;;;6.18;2.50;;;15.50;64.30;;;;;;5072417;28;20029;-51
2021/04/17 12:25:37;;;;;;;5.22;2.53;;;15.40;64.30;;;;;;5074512;28;20036;-51
2021/04/17 12:28:03;;;;;;;4.93;2.72;;;15.30;64.50;;;;;;5074679;28;20029;-50
2021/04/17 12:30:28;;;;;;;9.85;3.47;;;15.20;64.50;;;;;;5074446;28;20062;-51
2021/04/17 12:32:54;;;;;;;3.33;2.10;;;15.20;64.70;;;;;;5074135;28;20013;-50
2021/04/17 12:35:21;;;;;;;4.03;2.85;;;15.10;64.60;;;;;;5074430;28;20112;-51
2021/04/17 12:37:48;;;;;;;5.65;2.50;;;15.10;64.70;;;;;;5074314;28;20502;-49
2021/04/17 12:40:14;;;;;;;7.45;3.33;;;15.00;64.80;;;;;;5073315;28;20078;-51
2021/04/17 12:42:40;;;;;;;5.05;2.45;;;15.00;64.80;;;;;;5074232;28;20095;-50
2021/04/17 12:45:08;;;;;;;10.13;3.40;;;15.00;65.10;;;;;;5554576;22;20042;-50
2021/04/17 12:47:33;;;;;;;6.70;3.08;;;14.90;64.90;;;;;;5072909;28;20056;-48
2021/04/17 12:49:59;;;;;;;5.60;2.80;;;14.80;64.90;;;;;;5074008;28;20384;-49
2021/04/17 12:52:24;;;;;;;6.80;3.28;;;14.80;64.80;;;;;;5073863;28;20380;-53
2021/04/17 12:54:50;;;;;;;9.65;3.20;;;14.90;64.60;;;;;;5073188;28;20495;-51
2021/04/17 12:57:15;;;;;;;5.95;2.92;;;14.90;64.60;;;;;;5073868;28;20024;-52
2021/04/17 12:59:41;;;;;;;4.50;2.83;;;14.90;64.50;;;;;;5070848;28;20428;-53